sensor_id;sensor_type;location;lat;lon;timestamp;temperature;humidity
27540;DHT22;15906;52.046;4.724;2022-09-12T00:02:19;17.00;99.90
27540;DHT22;15906;52.046;4.724;2022-09-12T00:04:44;17.00;99.90
27540;DHT22;15906;52.046;4.724;2022-09-12T00:07:10;17.00;99.90
27540;DHT22;15906;52.046;4.724;2022-09-12T00:09:35;17.00;99.90
27540;DHT22;15906;52.046;4.724;2022-09-12T00:12:01;16.90;99.90
27540;DHT22;15906;52.046;4.724;2022-09-12T00:14:26;16.90;99.90
27540;DHT22;15906;52.046;4.724;2022-09-12T00:16:52;16.90;99.90
27540;DHT22;15906;52.046;4.724;2022-09-12T00:19:17;16.80;99.90
27540;DHT22;15906;52.046;4.724;2022-09-12T00:21:43;16.80;99.90
27540;DHT22;15906;52.046;4.724;2022-09-12T00:24:09;16.90;99.90
27540;DHT22;15906;52.046;4.724;2022-09-12T00:26:36;16.90;99.90
27540;DHT22;15906;52.046;4.724;2022-09-12T00:29:01;16.80;99.90
27540;DHT22;15906;52.046;4.724;2022-09-12T00:31:27;16.80;99.90
27540;DHT22;15906;52.046;4.724;2022-09-12T00:33:55;16.80;99.90
27540;DHT22;15906;52.046;4.724;2022-09-12T00:36:23;16.80;99.90
27540;DHT22;15906;52.046;4.724;2022-09-12T00:38:50;16.80;99.90
27540;DHT22;15906;52.046;4.724;2022-09-12T00:41:20;16.70;99.90
27540;DHT22;15906;52.046;4.724;2022-09-12T00:43:48;16.80;99.90
27540;DHT22;15906;52.046;4.724;2022-09-12T00:46:44;16.70;99.90
27540;DHT22;15906;52.046;4.724;2022-09-12T00:49:17;16.70;99.90
27540;DHT22;15906;52.046;4.724;2022-09-12T00:52:04;16.70;99.90
27540;DHT22;15906;52.046;4.724;2022-09-12T00:54:34;16.60;99.90
27540;DHT22;15906;52.046;4.724;2022-09-12T00:57:03;16.60;99.90
27540;DHT22;15906;52.046;4.724;2022-09-12T00:59:37;16.60;99.90
27540;DHT22;15906;52.046;4.724;2022-09-12T01:02:05;16.60;99.90
27540;DHT22;15906;52.046;4.724;2022-09-12T01:04:31;16.60;99.90
27540;DHT22;15906;52.046;4.724;2022-09-12T01:06:59;16.60;99.90
27540;DHT22;15906;52.046;4.724;2022-09-12T01:09:25;16.70;99.90
27540;DHT22;15906;52.046;4.724;2022-09-12T01:11:51;16.60;99.90
27540;DHT22;15906;52.046;4.724;2022-09-12T01:14:18;16.60;99.90
27540;DHT22;15906;52.046;4.724;2022-09-12T01:16:46;16.60;99.90
27540;DHT22;15906;52.046;4.724;2022-09-12T01:25:06;16.60;99.90
27540;DHT22;15906;52.046;4.724;2022-09-12T01:30:48;16.50;99.90
27540;DHT22;15906;52.046;4.724;2022-09-12T01:33:39;16.50;99.90
27540;DHT22;15906;52.046;4.724;2022-09-12T01:38:59;16.60;99.90
27540;DHT22;15906;52.046;4.724;2022-09-12T01:47:56;16.60;99.90
27540;DHT22;15906;52.046;4.724;2022-09-12T01:50:36;16.60;99.90
27540;DHT22;15906;52.046;4.724;2022-09-12T01:53:32;16.50;99.90
27540;DHT22;15906;52.046;4.724;2022-09-12T01:56:07;16.50;99.90
27540;DHT22;15906;52.046;4.724;2022-09-12T01:58:44;16.50;99.90
27540;DHT22;15906;52.046;4.724;2022-09-12T02:01:17;16.40;99.90
27540;DHT22;15906;52.046;4.724;2022-09-12T02:03:56;16.50;99.90
27540;DHT22;15906;52.046;4.724;2022-09-12T02:06:29;16.40;99.90
27540;DHT22;15906;52.046;4.724;2022-09-12T02:09:07;16.40;99.90
27540;DHT22;15906;52.046;4.724;2022-09-12T02:11:36;16.50;99.90
27540;DHT22;15906;52.046;4.724;2022-09-12T02:14:07;16.50;99.90
27540;DHT22;15906;52.046;4.724;2022-09-12T02:16:41;16.40;99.90
27540;DHT22;15906;52.046;4.724;2022-09-12T02:19:19;16.40;99.90
27540;DHT22;15906;52.046;4.724;2022-09-12T02:21:58;16.40;99.90
27540;DHT22;15906;52.046;4.724;2022-09-12T02:24:32;16.30;99.90
27540;DHT22;15906;52.046;4.724;2022-09-12T02:27:21;16.20;99.90
27540;DHT22;15906;52.046;4.724;2022-09-12T02:29:48;16.20;99.90
27540;DHT22;15906;52.046;4.724;2022-09-12T02:35:12;16.20;99.90
27540;DHT22;15906;52.046;4.724;2022-09-12T02:40:23;16.30;99.90
27540;DHT22;15906;52.046;4.724;2022-09-12T02:42:49;16.20;99.90
27540;DHT22;15906;52.046;4.724;2022-09-12T02:45:16;16.20;99.90
27540;DHT22;15906;52.046;4.724;2022-09-12T02:47:52;16.10;99.90
27540;DHT22;15906;52.046;4.724;2022-09-12T02:50:18;16.10;99.90
27540;DHT22;15906;52.046;4.724;2022-09-12T02:52:44;16.10;99.90
27540;DHT22;15906;52.046;4.724;2022-09-12T02:55:10;16.10;99.90
27540;DHT22;15906;52.046;4.724;2022-09-12T02:57:37;16.20;99.90
27540;DHT22;15906;52.046;4.724;2022-09-12T03:00:04;16.20;99.90
27540;DHT22;15906;52.046;4.724;2022-09-12T03:05:30;16.20;99.90
27540;DHT22;15906;52.046;4.724;2022-09-12T03:08:21;16.20;99.90
27540;DHT22;15906;52.046;4.724;2022-09-12T03:14:30;16.10;99.90
27540;DHT22;15906;52.046;4.724;2022-09-12T03:17:18;16.10;99.90
27540;DHT22;15906;52.046;4.724;2022-09-12T03:20:14;16.10;99.90
27540;DHT22;15906;52.046;4.724;2022-09-12T03:22:54;16.10;99.90
27540;DHT22;15906;52.046;4.724;2022-09-12T03:25:47;16.20;99.90
27540;DHT22;15906;52.046;4.724;2022-09-12T03:28:15;16.10;99.90
27540;DHT22;15906;52.046;4.724;2022-09-12T03:30:47;16.10;99.90
27540;DHT22;15906;52.046;4.724;2022-09-12T03:33:18;16.00;99.90
27540;DHT22;15906;52.046;4.724;2022-09-12T03:35:44;16.10;99.90
27540;DHT22;15906;52.046;4.724;2022-09-12T03:38:10;16.10;99.90
27540;DHT22;15906;52.046;4.724;2022-09-12T03:40:37;16.10;99.90
27540;DHT22;15906;52.046;4.724;2022-09-12T03:43:07;16.10;99.90
27540;DHT22;15906;52.046;4.724;2022-09-12T03:45:33;16.00;99.90
27540;DHT22;15906;52.046;4.724;2022-09-12T03:47:59;16.10;99.90
27540;DHT22;15906;52.046;4.724;2022-09-12T03:50:24;16.10;99.90
27540;DHT22;15906;52.046;4.724;2022-09-12T03:52:50;16.10;99.90
27540;DHT22;15906;52.046;4.724;2022-09-12T03:55:15;16.00;99.90
27540;DHT22;15906;52.046;4.724;2022-09-12T03:57:42;16.10;99.90
27540;DHT22;15906;52.046;4.724;2022-09-12T04:00:07;16.10;99.90
27540;DHT22;15906;52.046;4.724;2022-09-12T04:02:33;16.10;99.90
27540;DHT22;15906;52.046;4.724;2022-09-12T04:04:59;16.00;99.90
27540;DHT22;15906;52.046;4.724;2022-09-12T04:07:25;16.00;99.90
27540;DHT22;15906;52.046;4.724;2022-09-12T04:09:51;16.00;99.90
27540;DHT22;15906;52.046;4.724;2022-09-12T04:12:18;16.00;99.90
27540;DHT22;15906;52.046;4.724;2022-09-12T04:14:43;16.00;99.90
27540;DHT22;15906;52.046;4.724;2022-09-12T04:17:09;16.00;99.90
27540;DHT22;15906;52.046;4.724;2022-09-12T04:19:35;16.00;99.90
27540;DHT22;15906;52.046;4.724;2022-09-12T04:22:00;16.00;99.90
27540;DHT22;15906;52.046;4.724;2022-09-12T04:24:26;16.00;99.90
27540;DHT22;15906;52.046;4.724;2022-09-12T04:26:51;16.10;99.90
27540;DHT22;15906;52.046;4.724;2022-09-12T04:29:17;16.10;99.90
27540;DHT22;15906;52.046;4.724;2022-09-12T04:31:43;15.90;99.90
27540;DHT22;15906;52.046;4.724;2022-09-12T04:34:08;16.00;99.90
27540;DHT22;15906;52.046;4.724;2022-09-12T04:36:34;16.10;99.90
27540;DHT22;15906;52.046;4.724;2022-09-12T04:39:01;16.00;99.90
27540;DHT22;15906;52.046;4.724;2022-09-12T04:41:30;16.00;99.90
27540;DHT22;15906;52.046;4.724;2022-09-12T04:44:02;16.10;99.90
27540;DHT22;15906;52.046;4.724;2022-09-12T04:46:33;16.10;99.90
27540;DHT22;15906;52.046;4.724;2022-09-12T04:48:59;16.10;99.90
27540;DHT22;15906;52.046;4.724;2022-09-12T04:51:29;16.10;99.90
27540;DHT22;15906;52.046;4.724;2022-09-12T04:53:57;16.00;99.90
27540;DHT22;15906;52.046;4.724;2022-09-12T04:56:23;16.00;99.90
27540;DHT22;15906;52.046;4.724;2022-09-12T04:58:49;16.00;99.90
27540;DHT22;15906;52.046;4.724;2022-09-12T05:01:18;16.00;99.90
27540;DHT22;15906;52.046;4.724;2022-09-12T05:03:44;16.10;99.90
27540;DHT22;15906;52.046;4.724;2022-09-12T05:06:13;16.00;99.90
27540;DHT22;15906;52.046;4.724;2022-09-12T05:08:39;16.00;99.90
27540;DHT22;15906;52.046;4.724;2022-09-12T05:11:07;16.00;99.90
27540;DHT22;15906;52.046;4.724;2022-09-12T05:13:35;15.90;99.90
27540;DHT22;15906;52.046;4.724;2022-09-12T05:16:02;16.00;99.90
27540;DHT22;15906;52.046;4.724;2022-09-12T05:18:30;15.90;99.90
27540;DHT22;15906;52.046;4.724;2022-09-12T05:20:58;15.90;99.90
27540;DHT22;15906;52.046;4.724;2022-09-12T05:23:24;15.90;99.90
27540;DHT22;15906;52.046;4.724;2022-09-12T05:25:51;15.80;99.90
27540;DHT22;15906;52.046;4.724;2022-09-12T05:28:17;15.90;99.90
27540;DHT22;15906;52.046;4.724;2022-09-12T05:30:43;15.80;99.90
27540;DHT22;15906;52.046;4.724;2022-09-12T05:33:08;15.90;99.90
27540;DHT22;15906;52.046;4.724;2022-09-12T05:35:34;15.90;99.90
27540;DHT22;15906;52.046;4.724;2022-09-12T05:38:02;15.90;99.90
27540;DHT22;15906;52.046;4.724;2022-09-12T05:40:28;15.90;99.90
27540;DHT22;15906;52.046;4.724;2022-09-12T05:42:53;16.00;99.90
27540;DHT22;15906;52.046;4.724;2022-09-12T05:45:19;15.80;99.90
27540;DHT22;15906;52.046;4.724;2022-09-12T05:47:46;15.80;99.90
27540;DHT22;15906;52.046;4.724;2022-09-12T05:50:11;15.80;99.90
27540;DHT22;15906;52.046;4.724;2022-09-12T05:52:37;15.80;99.90
27540;DHT22;15906;52.046;4.724;2022-09-12T05:55:03;15.80;99.90
27540;DHT22;15906;52.046;4.724;2022-09-12T05:57:28;15.80;99.90
27540;DHT22;15906;52.046;4.724;2022-09-12T05:59:54;15.80;99.90
27540;DHT22;15906;52.046;4.724;2022-09-12T06:02:19;15.80;99.90
27540;DHT22;15906;52.046;4.724;2022-09-12T06:04:45;15.80;99.90
27540;DHT22;15906;52.046;4.724;2022-09-12T06:07:11;15.80;99.90
27540;DHT22;15906;52.046;4.724;2022-09-12T06:09:36;15.80;99.90
27540;DHT22;15906;52.046;4.724;2022-09-12T06:12:02;15.70;99.90
27540;DHT22;15906;52.046;4.724;2022-09-12T06:14:28;15.70;99.90
27540;DHT22;15906;52.046;4.724;2022-09-12T06:16:54;15.70;99.90
27540;DHT22;15906;52.046;4.724;2022-09-12T06:19:20;15.70;99.90
27540;DHT22;15906;52.046;4.724;2022-09-12T06:21:47;15.70;99.90
27540;DHT22;15906;52.046;4.724;2022-09-12T06:24:14;15.70;99.90
27540;DHT22;15906;52.046;4.724;2022-09-12T06:26:39;15.70;99.90
27540;DHT22;15906;52.046;4.724;2022-09-12T06:29:05;15.70;99.90
27540;DHT22;15906;52.046;4.724;2022-09-12T06:31:34;15.70;99.90
27540;DHT22;15906;52.046;4.724;2022-09-12T06:34:02;15.70;99.90
27540;DHT22;15906;52.046;4.724;2022-09-12T06:36:31;15.70;99.90
27540;DHT22;15906;52.046;4.724;2022-09-12T06:39:02;15.80;99.90
27540;DHT22;15906;52.046;4.724;2022-09-12T06:41:29;15.80;99.90
27540;DHT22;15906;52.046;4.724;2022-09-12T06:43:56;15.80;99.90
27540;DHT22;15906;52.046;4.724;2022-09-12T06:46:22;15.90;99.90
27540;DHT22;15906;52.046;4.724;2022-09-12T06:48:48;16.00;99.90
27540;DHT22;15906;52.046;4.724;2022-09-12T06:51:15;16.10;99.90
27540;DHT22;15906;52.046;4.724;2022-09-12T06:53:42;16.10;99.90
27540;DHT22;15906;52.046;4.724;2022-09-12T06:56:10;16.20;99.90
27540;DHT22;15906;52.046;4.724;2022-09-12T06:58:36;16.30;99.90
27540;DHT22;15906;52.046;4.724;2022-09-12T07:01:13;16.30;99.90
27540;DHT22;15906;52.046;4.724;2022-09-12T07:03:40;16.50;99.90
27540;DHT22;15906;52.046;4.724;2022-09-12T07:06:12;16.60;99.90
27540;DHT22;15906;52.046;4.724;2022-09-12T07:08:38;16.80;99.90
27540;DHT22;15906;52.046;4.724;2022-09-12T07:11:10;17.00;99.90
27540;DHT22;15906;52.046;4.724;2022-09-12T07:13:37;17.20;99.90
27540;DHT22;15906;52.046;4.724;2022-09-12T07:16:04;17.40;99.90
27540;DHT22;15906;52.046;4.724;2022-09-12T07:18:30;17.40;99.90
27540;DHT22;15906;52.046;4.724;2022-09-12T07:20:58;17.40;99.90
27540;DHT22;15906;52.046;4.724;2022-09-12T07:23:23;17.40;99.90
27540;DHT22;15906;52.046;4.724;2022-09-12T07:25:53;17.50;99.90
27540;DHT22;15906;52.046;4.724;2022-09-12T07:28:19;17.50;99.90
27540;DHT22;15906;52.046;4.724;2022-09-12T07:30:44;17.60;99.90
27540;DHT22;15906;52.046;4.724;2022-09-12T07:33:10;17.70;99.90
27540;DHT22;15906;52.046;4.724;2022-09-12T07:35:36;17.70;99.90
27540;DHT22;15906;52.046;4.724;2022-09-12T07:38:01;17.80;99.90
27540;DHT22;15906;52.046;4.724;2022-09-12T07:40:27;18.00;99.90
27540;DHT22;15906;52.046;4.724;2022-09-12T07:42:52;18.00;99.90
27540;DHT22;15906;52.046;4.724;2022-09-12T07:45:18;18.10;99.90
27540;DHT22;15906;52.046;4.724;2022-09-12T07:47:43;18.20;99.90
27540;DHT22;15906;52.046;4.724;2022-09-12T07:50:09;18.30;99.90
27540;DHT22;15906;52.046;4.724;2022-09-12T07:52:34;18.30;99.90
27540;DHT22;15906;52.046;4.724;2022-09-12T07:55:00;18.50;99.90
27540;DHT22;15906;52.046;4.724;2022-09-12T07:57:26;18.50;99.90
27540;DHT22;15906;52.046;4.724;2022-09-12T07:59:52;18.60;99.90
27540;DHT22;15906;52.046;4.724;2022-09-12T08:02:17;18.70;99.90
27540;DHT22;15906;52.046;4.724;2022-09-12T08:04:43;18.80;99.90
27540;DHT22;15906;52.046;4.724;2022-09-12T08:07:09;18.90;99.90
27540;DHT22;15906;52.046;4.724;2022-09-12T08:09:34;19.00;99.90
27540;DHT22;15906;52.046;4.724;2022-09-12T08:12:00;19.10;99.90
27540;DHT22;15906;52.046;4.724;2022-09-12T08:14:26;19.30;99.90
27540;DHT22;15906;52.046;4.724;2022-09-12T08:16:52;19.30;99.90
27540;DHT22;15906;52.046;4.724;2022-09-12T08:19:17;19.50;99.90
27540;DHT22;15906;52.046;4.724;2022-09-12T08:21:43;19.50;99.90
27540;DHT22;15906;52.046;4.724;2022-09-12T08:24:10;19.60;99.90
27540;DHT22;15906;52.046;4.724;2022-09-12T08:26:36;19.80;99.90
27540;DHT22;15906;52.046;4.724;2022-09-12T08:29:02;20.00;99.90
27540;DHT22;15906;52.046;4.724;2022-09-12T08:31:29;20.20;99.90
27540;DHT22;15906;52.046;4.724;2022-09-12T08:34:01;20.40;99.90
27540;DHT22;15906;52.046;4.724;2022-09-12T08:36:27;20.50;99.90
27540;DHT22;15906;52.046;4.724;2022-09-12T08:38:59;20.60;99.90
27540;DHT22;15906;52.046;4.724;2022-09-12T08:41:37;20.70;99.90
27540;DHT22;15906;52.046;4.724;2022-09-12T08:44:17;20.80;99.90
27540;DHT22;15906;52.046;4.724;2022-09-12T08:49:35;21.00;99.90
27540;DHT22;15906;52.046;4.724;2022-09-12T08:52:17;21.10;99.90
27540;DHT22;15906;52.046;4.724;2022-09-12T08:54:43;21.30;99.90
27540;DHT22;15906;52.046;4.724;2022-09-12T08:57:13;21.50;99.90
27540;DHT22;15906;52.046;4.724;2022-09-12T08:59:44;21.60;99.90
27540;DHT22;15906;52.046;4.724;2022-09-12T09:02:31;21.70;99.90
27540;DHT22;15906;52.046;4.724;2022-09-12T09:08:00;21.90;99.90
27540;DHT22;15906;52.046;4.724;2022-09-12T09:10:46;22.10;99.90
27540;DHT22;15906;52.046;4.724;2022-09-12T09:13:21;22.10;99.90
27540;DHT22;15906;52.046;4.724;2022-09-12T09:16:30;22.10;99.90
27540;DHT22;15906;52.046;4.724;2022-09-12T09:19:03;22.30;99.90
27540;DHT22;15906;52.046;4.724;2022-09-12T09:21:43;22.50;99.90
27540;DHT22;15906;52.046;4.724;2022-09-12T09:24:12;22.70;99.90
27540;DHT22;15906;52.046;4.724;2022-09-12T09:26:47;22.60;99.90
27540;DHT22;15906;52.046;4.724;2022-09-12T09:29:19;22.80;99.90
27540;DHT22;15906;52.046;4.724;2022-09-12T09:31:51;23.00;99.90
27540;DHT22;15906;52.046;4.724;2022-09-12T09:34:25;23.20;99.90
27540;DHT22;15906;52.046;4.724;2022-09-12T09:45:23;23.50;99.90
27540;DHT22;15906;52.046;4.724;2022-09-12T09:48:07;23.50;99.90
27540;DHT22;15906;52.046;4.724;2022-09-12T09:50:37;23.70;99.90
27540;DHT22;15906;52.046;4.724;2022-09-12T09:53:04;23.60;99.90
27540;DHT22;15906;52.046;4.724;2022-09-12T09:55:38;23.60;99.90
27540;DHT22;15906;52.046;4.724;2022-09-12T09:58:05;23.80;99.90
27540;DHT22;15906;52.046;4.724;2022-09-12T10:00:35;23.80;99.90
27540;DHT22;15906;52.046;4.724;2022-09-12T10:05:37;24.10;99.90
27540;DHT22;15906;52.046;4.724;2022-09-12T10:08:09;24.20;99.90
27540;DHT22;15906;52.046;4.724;2022-09-12T10:10:35;24.20;99.90
27540;DHT22;15906;52.046;4.724;2022-09-12T10:13:12;24.00;99.90
27540;DHT22;15906;52.046;4.724;2022-09-12T10:15:55;23.90;99.90
27540;DHT22;15906;52.046;4.724;2022-09-12T10:18:41;23.80;99.90
27540;DHT22;15906;52.046;4.724;2022-09-12T10:21:15;23.90;99.90
27540;DHT22;15906;52.046;4.724;2022-09-12T10:23:44;24.10;99.90
27540;DHT22;15906;52.046;4.724;2022-09-12T10:26:12;24.40;99.90
27540;DHT22;15906;52.046;4.724;2022-09-12T10:28:44;24.30;99.90
27540;DHT22;15906;52.046;4.724;2022-09-12T10:31:16;24.30;99.90
27540;DHT22;15906;52.046;4.724;2022-09-12T10:33:51;24.30;99.90
27540;DHT22;15906;52.046;4.724;2022-09-12T10:36:18;24.40;99.90
27540;DHT22;15906;52.046;4.724;2022-09-12T10:38:58;24.30;99.90
27540;DHT22;15906;52.046;4.724;2022-09-12T10:41:25;24.20;99.90
27540;DHT22;15906;52.046;4.724;2022-09-12T10:43:51;23.90;99.90
27540;DHT22;15906;52.046;4.724;2022-09-12T10:48:43;24.40;99.90
27540;DHT22;15906;52.046;4.724;2022-09-12T10:53:51;25.00;99.90
27540;DHT22;15906;52.046;4.724;2022-09-12T10:56:19;25.00;99.90
27540;DHT22;15906;52.046;4.724;2022-09-12T11:01:51;24.90;99.90
27540;DHT22;15906;52.046;4.724;2022-09-12T11:04:36;25.10;99.90
27540;DHT22;15906;52.046;4.724;2022-09-12T11:07:25;25.00;99.90
27540;DHT22;15906;52.046;4.724;2022-09-12T11:10:12;25.00;99.90
27540;DHT22;15906;52.046;4.724;2022-09-12T11:13:10;24.80;99.90
27540;DHT22;15906;52.046;4.724;2022-09-12T11:16:16;24.70;99.90
27540;DHT22;15906;52.046;4.724;2022-09-12T11:19:11;24.70;99.90
27540;DHT22;15906;52.046;4.724;2022-09-12T11:24:54;25.30;99.90
27540;DHT22;15906;52.046;4.724;2022-09-12T11:30:13;25.00;99.90
27540;DHT22;15906;52.046;4.724;2022-09-12T11:33:05;24.80;99.90
27540;DHT22;15906;52.046;4.724;2022-09-12T11:35:34;24.90;99.90
27540;DHT22;15906;52.046;4.724;2022-09-12T11:38:40;25.20;99.90
27540;DHT22;15906;52.046;4.724;2022-09-12T11:41:28;25.30;99.90
27540;DHT22;15906;52.046;4.724;2022-09-12T11:46:35;25.70;99.90
27540;DHT22;15906;52.046;4.724;2022-09-12T11:54:36;25.60;99.90
27540;DHT22;15906;52.046;4.724;2022-09-12T11:59:57;25.90;99.90
27540;DHT22;15906;52.046;4.724;2022-09-12T12:02:39;26.10;99.90
27540;DHT22;15906;52.046;4.724;2022-09-12T12:05:23;26.10;99.90
27540;DHT22;15906;52.046;4.724;2022-09-12T12:07:52;26.40;99.90
27540;DHT22;15906;52.046;4.724;2022-09-12T12:12:53;26.50;99.90
27540;DHT22;15906;52.046;4.724;2022-09-12T12:15:20;26.60;99.90
27540;DHT22;15906;52.046;4.724;2022-09-12T12:17:59;26.30;98.80
27540;DHT22;15906;52.046;4.724;2022-09-12T12:20:26;26.10;99.90
27540;DHT22;15906;52.046;4.724;2022-09-12T12:22:53;26.00;99.90
27540;DHT22;15906;52.046;4.724;2022-09-12T12:27:51;26.00;99.90
27540;DHT22;15906;52.046;4.724;2022-09-12T12:35:42;25.60;99.90
27540;DHT22;15906;52.046;4.724;2022-09-12T12:38:37;25.70;99.90
27540;DHT22;15906;52.046;4.724;2022-09-12T12:43:45;25.30;99.90
27540;DHT22;15906;52.046;4.724;2022-09-12T12:46:12;25.30;99.90
27540;DHT22;15906;52.046;4.724;2022-09-12T12:48:57;25.40;99.90
27540;DHT22;15906;52.046;4.724;2022-09-12T12:51:41;25.20;99.90
27540;DHT22;15906;52.046;4.724;2022-09-12T12:54:46;25.00;99.90
27540;DHT22;15906;52.046;4.724;2022-09-12T12:57:26;24.70;99.90
27540;DHT22;15906;52.046;4.724;2022-09-12T12:59:57;24.80;99.90
27540;DHT22;15906;52.046;4.724;2022-09-12T13:02:30;24.70;99.90
27540;DHT22;15906;52.046;4.724;2022-09-12T13:04:58;24.80;99.90
27540;DHT22;15906;52.046;4.724;2022-09-12T13:07:30;24.80;99.90
27540;DHT22;15906;52.046;4.724;2022-09-12T13:09:57;25.00;99.90
27540;DHT22;15906;52.046;4.724;2022-09-12T13:12:35;24.90;99.90
27540;DHT22;15906;52.046;4.724;2022-09-12T13:15:04;24.80;99.90
27540;DHT22;15906;52.046;4.724;2022-09-12T13:17:49;25.00;99.90
27540;DHT22;15906;52.046;4.724;2022-09-12T13:20:19;25.00;99.90
27540;DHT22;15906;52.046;4.724;2022-09-12T13:22:48;25.10;99.90
27540;DHT22;15906;52.046;4.724;2022-09-12T13:28:02;25.20;99.90
27540;DHT22;15906;52.046;4.724;2022-09-12T13:30:33;25.00;99.90
27540;DHT22;15906;52.046;4.724;2022-09-12T13:33:10;25.00;99.90
27540;DHT22;15906;52.046;4.724;2022-09-12T13:38:18;25.20;99.90
27540;DHT22;15906;52.046;4.724;2022-09-12T13:41:12;25.30;99.90
27540;DHT22;15906;52.046;4.724;2022-09-12T13:43:42;25.20;99.90
27540;DHT22;15906;52.046;4.724;2022-09-12T13:46:15;25.00;99.90
27540;DHT22;15906;52.046;4.724;2022-09-12T13:48:43;24.90;99.90
27540;DHT22;15906;52.046;4.724;2022-09-12T13:51:26;24.80;99.90
27540;DHT22;15906;52.046;4.724;2022-09-12T13:53:56;24.90;99.90
27540;DHT22;15906;52.046;4.724;2022-09-12T13:56:22;24.80;99.90
27540;DHT22;15906;52.046;4.724;2022-09-12T13:58:59;24.70;99.90
27540;DHT22;15906;52.046;4.724;2022-09-12T14:01:46;24.60;99.90
27540;DHT22;15906;52.046;4.724;2022-09-12T14:04:16;24.40;99.90
27540;DHT22;15906;52.046;4.724;2022-09-12T14:07:13;24.40;99.90
27540;DHT22;15906;52.046;4.724;2022-09-12T14:09:42;24.30;99.90
27540;DHT22;15906;52.046;4.724;2022-09-12T14:12:32;24.10;99.90
27540;DHT22;15906;52.046;4.724;2022-09-12T14:14:59;24.20;99.90
27540;DHT22;15906;52.046;4.724;2022-09-12T14:17:32;24.10;99.90
27540;DHT22;15906;52.046;4.724;2022-09-12T14:20:00;24.00;99.90
27540;DHT22;15906;52.046;4.724;2022-09-12T14:22:29;24.00;99.90
27540;DHT22;15906;52.046;4.724;2022-09-12T14:24:56;24.10;99.90
27540;DHT22;15906;52.046;4.724;2022-09-12T14:27:31;24.10;99.90
27540;DHT22;15906;52.046;4.724;2022-09-12T14:30:05;24.20;99.90
27540;DHT22;15906;52.046;4.724;2022-09-12T14:32:33;24.10;99.90
27540;DHT22;15906;52.046;4.724;2022-09-12T14:35:16;24.00;99.90
27540;DHT22;15906;52.046;4.724;2022-09-12T14:37:45;24.00;99.90
27540;DHT22;15906;52.046;4.724;2022-09-12T14:40:16;24.00;99.90
27540;DHT22;15906;52.046;4.724;2022-09-12T14:42:43;24.00;99.90
27540;DHT22;15906;52.046;4.724;2022-09-12T14:47:41;23.90;99.90
27540;DHT22;15906;52.046;4.724;2022-09-12T14:50:22;23.80;99.90
27540;DHT22;15906;52.046;4.724;2022-09-12T14:53:10;23.80;99.90
27540;DHT22;15906;52.046;4.724;2022-09-12T14:56:35;23.80;99.90
27540;DHT22;15906;52.046;4.724;2022-09-12T14:58:39;23.80;99.90
27540;DHT22;15906;52.046;4.724;2022-09-12T15:03:31;23.80;99.90
27540;DHT22;15906;52.046;4.724;2022-09-12T15:05:58;23.70;99.90
27540;DHT22;15906;52.046;4.724;2022-09-12T15:08:24;23.80;99.90
27540;DHT22;15906;52.046;4.724;2022-09-12T15:10:50;23.80;99.90
27540;DHT22;15906;52.046;4.724;2022-09-12T15:13:18;23.70;99.90
27540;DHT22;15906;52.046;4.724;2022-09-12T15:15:49;23.70;99.90
27540;DHT22;15906;52.046;4.724;2022-09-12T15:18:15;23.70;99.90
27540;DHT22;15906;52.046;4.724;2022-09-12T15:20:44;23.70;99.90
27540;DHT22;15906;52.046;4.724;2022-09-12T15:23:27;23.70;99.90
27540;DHT22;15906;52.046;4.724;2022-09-12T15:25:54;23.70;99.90
27540;DHT22;15906;52.046;4.724;2022-09-12T15:28:21;23.70;99.90
27540;DHT22;15906;52.046;4.724;2022-09-12T15:30:48;23.60;99.90
27540;DHT22;15906;52.046;4.724;2022-09-12T15:33:17;23.60;99.90
27540;DHT22;15906;52.046;4.724;2022-09-12T15:35:43;23.50;99.90
27540;DHT22;15906;52.046;4.724;2022-09-12T15:38:08;23.50;99.90
27540;DHT22;15906;52.046;4.724;2022-09-12T15:40:34;23.50;99.90
27540;DHT22;15906;52.046;4.724;2022-09-12T15:42:59;23.50;99.90
27540;DHT22;15906;52.046;4.724;2022-09-12T15:45:28;23.40;99.90
27540;DHT22;15906;52.046;4.724;2022-09-12T15:47:54;23.50;99.90
27540;DHT22;15906;52.046;4.724;2022-09-12T15:50:20;23.50;99.90
27540;DHT22;15906;52.046;4.724;2022-09-12T15:52:46;23.40;99.90
27540;DHT22;15906;52.046;4.724;2022-09-12T15:55:23;23.30;99.90
27540;DHT22;15906;52.046;4.724;2022-09-12T15:57:49;23.20;99.90
27540;DHT22;15906;52.046;4.724;2022-09-12T16:00:16;23.10;99.90
27540;DHT22;15906;52.046;4.724;2022-09-12T16:02:43;23.10;99.90
27540;DHT22;15906;52.046;4.724;2022-09-12T16:05:21;23.20;99.90
27540;DHT22;15906;52.046;4.724;2022-09-12T16:07:47;23.10;99.90
27540;DHT22;15906;52.046;4.724;2022-09-12T16:10:16;23.10;99.90
27540;DHT22;15906;52.046;4.724;2022-09-12T16:12:43;23.00;99.90
27540;DHT22;15906;52.046;4.724;2022-09-12T16:15:12;23.00;99.90
27540;DHT22;15906;52.046;4.724;2022-09-12T16:17:38;23.00;99.90
27540;DHT22;15906;52.046;4.724;2022-09-12T16:20:04;23.00;99.90
27540;DHT22;15906;52.046;4.724;2022-09-12T16:22:29;22.80;99.90
27540;DHT22;15906;52.046;4.724;2022-09-12T16:24:55;22.90;99.90
27540;DHT22;15906;52.046;4.724;2022-09-12T16:27:20;23.00;99.90
27540;DHT22;15906;52.046;4.724;2022-09-12T16:29:46;22.80;99.90
27540;DHT22;15906;52.046;4.724;2022-09-12T16:32:11;22.80;99.90
27540;DHT22;15906;52.046;4.724;2022-09-12T16:34:37;22.90;99.90
27540;DHT22;15906;52.046;4.724;2022-09-12T16:37:02;23.00;99.90
27540;DHT22;15906;52.046;4.724;2022-09-12T16:39:28;23.00;99.90
27540;DHT22;15906;52.046;4.724;2022-09-12T16:41:53;23.10;99.90
27540;DHT22;15906;52.046;4.724;2022-09-12T16:44:19;23.10;99.90
27540;DHT22;15906;52.046;4.724;2022-09-12T16:46:44;23.10;99.90
27540;DHT22;15906;52.046;4.724;2022-09-12T16:49:10;23.00;99.90
27540;DHT22;15906;52.046;4.724;2022-09-12T16:51:36;23.10;99.90
27540;DHT22;15906;52.046;4.724;2022-09-12T16:54:01;23.00;99.90
27540;DHT22;15906;52.046;4.724;2022-09-12T16:56:27;23.00;99.90
27540;DHT22;15906;52.046;4.724;2022-09-12T16:58:53;22.90;99.90
27540;DHT22;15906;52.046;4.724;2022-09-12T17:01:21;22.90;99.90
27540;DHT22;15906;52.046;4.724;2022-09-12T17:03:47;22.80;99.90
27540;DHT22;15906;52.046;4.724;2022-09-12T17:06:15;22.80;99.90
27540;DHT22;15906;52.046;4.724;2022-09-12T17:08:43;22.80;99.90
27540;DHT22;15906;52.046;4.724;2022-09-12T17:11:14;22.80;99.90
27540;DHT22;15906;52.046;4.724;2022-09-12T17:13:39;22.80;99.90
27540;DHT22;15906;52.046;4.724;2022-09-12T17:16:07;22.80;99.90
27540;DHT22;15906;52.046;4.724;2022-09-12T17:18:33;22.70;99.90
27540;DHT22;15906;52.046;4.724;2022-09-12T17:20:58;22.70;99.90
27540;DHT22;15906;52.046;4.724;2022-09-12T17:23:24;22.70;99.90
27540;DHT22;15906;52.046;4.724;2022-09-12T17:25:50;22.70;99.90
27540;DHT22;15906;52.046;4.724;2022-09-12T17:28:17;22.70;99.90